Date,TemperatureHighF,TemperatureAvgF,TemperatureLowF,DewpointHighF,DewpointAvgF,DewpointLowF,HumidityHigh,HumidityAvg,HumidityLow,PressureMaxIn,PressureMinIn,WindSpeedMaxMPH,WindSpeedAvgMPH,GustSpeedMaxMPH,PrecipitationSumIn
2013-3-1,41,25,9,15,10,2,71,56,35,30.16,30.04,58,3,58,0.00
2013-3-2,53,32,16,20,14,8,71,51,25,30.19,30.01,11,2,11,0.00
2013-3-3,49,36,23,22,14,1,68,45,20,30.02,29.70,32,6,32,0.00
2013-3-4,40,25,7,30,16,-8,93,69,28,29.97,29.65,19,2,19,0.07
2013-3-5,49,24,5,12,-2,-16,61,37,13,30.05,29.95,8,2,8,0.00
2013-3-6,52,35,18,17,8,0,52,36,19,30.00,29.83,13,3,13,0.00
2013-3-7,54,38,24,14,7,-6,54,33,12,29.91,29.84,14,3,17,0.00
2013-3-8,48,33,23,28,18,10,94,58,29,29.90,29.61,16,2,16,0.00
2013-3-9,32,26,19,26,22,17,93,82,75,29.62,29.56,4,0,4,0.02
2013-3-10,29,29,29,22,22,22,76,76,76,29.62,29.62,0,0,1,0.02
2013-3-11,29,29,29,22,22,22,76,76,76,29.62,29.62,0,0,1,0.02
2013-3-12,49,33,28,22,18,10,76,61,26,30.09,29.62,14,2,14,0.06
2013-3-13,54,37,24,21,15,9,67,45,22,30.19,30.08,12,2,12,0.00
2013-3-14,60,42,26,22,14,2,63,38,14,30.23,30.12,18,3,18,0.00
2013-3-15,61,44,29,21,16,6,62,37,17,30.14,29.91,19,3,19,0.00
2013-3-16,42,35,27,34,25,15,91,67,40,29.94,29.80,12,2,12,0.04
2013-3-17,42,30,22,31,18,0,90,64,31,29.82,29.60,19,3,19,0.06
2013-3-18,35,29,24,11,3,-5,54,35,27,29.85,29.73,25,5,25,0.00
2013-3-19,44,34,18,4,-7,-25,42,22,10,30.06,29.83,28,6,28,0.00
2013-3-20,50,31,13,19,5,-8,61,37,19,30.06,29.77,24,4,24,0.00
2013-3-21,40,31,24,30,19,0,88,62,33,29.78,29.60,28,4,28,0.08
2013-3-22,39,30,15,11,4,-8,59,36,18,29.71,29.56,18,8,18,0.00
2013-3-23,36,36,36,5,5,5,29,29,29,29.57,29.57,13,13,18,0.00
2013-3-24,36,36,36,5,5,5,29,29,29,29.57,29.57,13,13,18,0.00
2013-3-25,36,36,36,5,5,5,29,29,29,29.57,29.57,13,13,18,0.00
2013-3-26,36,36,36,5,5,5,29,29,29,29.57,29.57,13,13,18,0.00
2013-3-27,36,36,36,5,5,5,29,29,29,29.57,29.57,13,13,18,0.00
2013-3-28,36,36,36,5,5,5,29,29,29,29.57,29.57,13,13,18,0.00
2013-3-29,36,36,36,5,5,5,29,29,29,29.57,29.57,13,13,18,0.00
2013-3-30,36,36,36,5,5,5,29,29,29,29.57,29.57,13,13,18,0.00
2013-3-31,58,38,36,10,6,5,29,28,16,29.94,29.57,13,12,18,0.07